sensor_id;sensor_type;location;lat;lon;timestamp;P1;durP1;ratioP1;P2;durP2;ratioP2
76393;SDS011;65216;51.090;-115.352;2023-11-21T00:00:15;10.00;;;1.20;;
76393;SDS011;65216;51.090;-115.352;2023-11-21T00:02:44;12.90;;;1.80;;
76393;SDS011;65216;51.090;-115.352;2023-11-21T00:05:12;9.00;;;1.30;;
76393;SDS011;65216;51.090;-115.352;2023-11-21T00:07:41;12.40;;;1.50;;
76393;SDS011;65216;51.090;-115.352;2023-11-21T00:10:09;12.60;;;1.20;;
76393;SDS011;65216;51.090;-115.352;2023-11-21T00:12:37;17.50;;;1.70;;
76393;SDS011;65216;51.090;-115.352;2023-11-21T00:15:04;18.20;;;1.60;;
76393;SDS011;65216;51.090;-115.352;2023-11-21T00:17:31;12.90;;;1.60;;
76393;SDS011;65216;51.090;-115.352;2023-11-21T00:19:58;15.30;;;1.50;;
76393;SDS011;65216;51.090;-115.352;2023-11-21T00:22:27;13.20;;;1.50;;
76393;SDS011;65216;51.090;-115.352;2023-11-21T00:24:54;12.60;;;1.40;;
76393;SDS011;65216;51.090;-115.352;2023-11-21T00:27:21;19.40;;;1.50;;
76393;SDS011;65216;51.090;-115.352;2023-11-21T00:29:48;13.40;;;1.70;;
76393;SDS011;65216;51.090;-115.352;2023-11-21T00:32:15;14.80;;;1.70;;
76393;SDS011;65216;51.090;-115.352;2023-11-21T00:34:44;15.80;;;1.50;;
76393;SDS011;65216;51.090;-115.352;2023-11-21T00:37:14;14.80;;;1.90;;
76393;SDS011;65216;51.090;-115.352;2023-11-21T00:39:41;15.70;;;1.90;;
76393;SDS011;65216;51.090;-115.352;2023-11-21T00:42:08;17.30;;;1.80;;
76393;SDS011;65216;51.090;-115.352;2023-11-21T00:44:38;16.90;;;1.60;;
76393;SDS011;65216;51.090;-115.352;2023-11-21T00:47:05;25.10;;;2.00;;
76393;SDS011;65216;51.090;-115.352;2023-11-21T00:49:33;15.60;;;1.40;;
76393;SDS011;65216;51.090;-115.352;2023-11-21T00:52:01;16.20;;;1.80;;
76393;SDS011;65216;51.090;-115.352;2023-11-21T00:54:28;14.80;;;1.60;;
76393;SDS011;65216;51.090;-115.352;2023-11-21T00:56:55;16.50;;;1.80;;
76393;SDS011;65216;51.090;-115.352;2023-11-21T00:59:22;14.80;;;2.30;;
76393;SDS011;65216;51.090;-115.352;2023-11-21T01:01:50;20.40;;;2.00;;
76393;SDS011;65216;51.090;-115.352;2023-11-21T01:04:17;19.10;;;2.50;;
76393;SDS011;65216;51.090;-115.352;2023-11-21T01:06:43;23.30;;;2.20;;
76393;SDS011;65216;51.090;-115.352;2023-11-21T01:09:11;21.10;;;2.20;;
76393;SDS011;65216;51.090;-115.352;2023-11-21T01:11:38;20.80;;;1.90;;
76393;SDS011;65216;51.090;-115.352;2023-11-21T01:14:05;27.40;;;2.70;;
76393;SDS011;65216;51.090;-115.352;2023-11-21T01:16:34;19.20;;;1.80;;
76393;SDS011;65216;51.090;-115.352;2023-11-21T01:19:04;15.90;;;2.10;;
76393;SDS011;65216;51.090;-115.352;2023-11-21T01:21:33;15.00;;;1.90;;
76393;SDS011;65216;51.090;-115.352;2023-11-21T01:23:59;16.40;;;1.90;;
76393;SDS011;65216;51.090;-115.352;2023-11-21T01:26:26;17.90;;;2.10;;
76393;SDS011;65216;51.090;-115.352;2023-11-21T01:28:54;15.90;;;1.70;;
76393;SDS011;65216;51.090;-115.352;2023-11-21T01:31:21;20.80;;;1.90;;
76393;SDS011;65216;51.090;-115.352;2023-11-21T01:33:47;22.20;;;1.80;;
76393;SDS011;65216;51.090;-115.352;2023-11-21T01:36:16;14.50;;;1.70;;
76393;SDS011;65216;51.090;-115.352;2023-11-21T01:38:43;14.50;;;1.60;;
76393;SDS011;65216;51.090;-115.352;2023-11-21T01:41:10;17.30;;;1.80;;
76393;SDS011;65216;51.090;-115.352;2023-11-21T01:43:40;16.80;;;1.80;;
76393;SDS011;65216;51.090;-115.352;2023-11-21T01:46:11;19.20;;;2.10;;
76393;SDS011;65216;51.090;-115.352;2023-11-21T01:48:41;14.70;;;1.60;;
76393;SDS011;65216;51.090;-115.352;2023-11-21T01:51:08;19.10;;;2.50;;
76393;SDS011;65216;51.090;-115.352;2023-11-21T01:53:35;19.20;;;2.10;;
76393;SDS011;65216;51.090;-115.352;2023-11-21T01:56:05;15.30;;;1.50;;
76393;SDS011;65216;51.090;-115.352;2023-11-21T01:58:36;18.40;;;1.80;;
76393;SDS011;65216;51.090;-115.352;2023-11-21T02:01:03;26.80;;;2.10;;
76393;SDS011;65216;51.090;-115.352;2023-11-21T02:03:31;22.50;;;1.90;;
76393;SDS011;65216;51.090;-115.352;2023-11-21T02:05:58;14.50;;;1.50;;
76393;SDS011;65216;51.090;-115.352;2023-11-21T02:08:25;12.10;;;1.70;;
76393;SDS011;65216;51.090;-115.352;2023-11-21T02:10:52;15.30;;;1.80;;
76393;SDS011;65216;51.090;-115.352;2023-11-21T02:13:19;18.10;;;2.00;;
76393;SDS011;65216;51.090;-115.352;2023-11-21T02:15:52;15.60;;;1.90;;
76393;SDS011;65216;51.090;-115.352;2023-11-21T02:18:20;17.10;;;1.70;;
76393;SDS011;65216;51.090;-115.352;2023-11-21T02:20:47;11.10;;;2.00;;
76393;SDS011;65216;51.090;-115.352;2023-11-21T02:23:14;14.40;;;1.60;;
76393;SDS011;65216;51.090;-115.352;2023-11-21T02:25:41;19.50;;;2.60;;
76393;SDS011;65216;51.090;-115.352;2023-11-21T02:28:08;19.60;;;2.20;;
76393;SDS011;65216;51.090;-115.352;2023-11-21T02:30:38;13.90;;;1.50;;
76393;SDS011;65216;51.090;-115.352;2023-11-21T02:33:05;10.80;;;1.40;;
76393;SDS011;65216;51.090;-115.352;2023-11-21T02:35:33;21.40;;;2.00;;
76393;SDS011;65216;51.090;-115.352;2023-11-21T02:38:00;16.80;;;2.20;;
76393;SDS011;65216;51.090;-115.352;2023-11-21T02:40:28;16.50;;;1.60;;
76393;SDS011;65216;51.090;-115.352;2023-11-21T02:42:55;13.90;;;1.40;;
76393;SDS011;65216;51.090;-115.352;2023-11-21T02:45:24;20.60;;;1.80;;
76393;SDS011;65216;51.090;-115.352;2023-11-21T02:47:51;23.30;;;1.70;;
76393;SDS011;65216;51.090;-115.352;2023-11-21T02:55:17;13.40;;;1.40;;
76393;SDS011;65216;51.090;-115.352;2023-11-21T02:57:44;16.30;;;1.70;;
76393;SDS011;65216;51.090;-115.352;2023-11-21T03:00:11;18.80;;;1.60;;
76393;SDS011;65216;51.090;-115.352;2023-11-21T03:02:41;20.30;;;1.60;;
76393;SDS011;65216;51.090;-115.352;2023-11-21T03:05:11;16.90;;;1.50;;
76393;SDS011;65216;51.090;-115.352;2023-11-21T03:07:38;15.80;;;1.90;;
76393;SDS011;65216;51.090;-115.352;2023-11-21T03:10:08;20.00;;;1.80;;
76393;SDS011;65216;51.090;-115.352;2023-11-21T03:12:37;16.50;;;1.60;;
76393;SDS011;65216;51.090;-115.352;2023-11-21T03:15:08;21.80;;;1.90;;
76393;SDS011;65216;51.090;-115.352;2023-11-21T03:17:35;10.20;;;2.00;;
76393;SDS011;65216;51.090;-115.352;2023-11-21T03:20:03;12.10;;;1.60;;
76393;SDS011;65216;51.090;-115.352;2023-11-21T03:22:33;17.90;;;1.70;;
76393;SDS011;65216;51.090;-115.352;2023-11-21T03:25:00;16.50;;;1.80;;
76393;SDS011;65216;51.090;-115.352;2023-11-21T03:27:27;15.10;;;1.60;;
76393;SDS011;65216;51.090;-115.352;2023-11-21T03:29:53;13.60;;;1.60;;
76393;SDS011;65216;51.090;-115.352;2023-11-21T03:32:20;18.20;;;1.90;;
76393;SDS011;65216;51.090;-115.352;2023-11-21T03:34:55;18.40;;;2.00;;
76393;SDS011;65216;51.090;-115.352;2023-11-21T03:37:24;15.80;;;1.80;;
76393;SDS011;65216;51.090;-115.352;2023-11-21T03:39:54;12.60;;;1.50;;
76393;SDS011;65216;51.090;-115.352;2023-11-21T03:42:22;17.60;;;1.70;;
76393;SDS011;65216;51.090;-115.352;2023-11-21T03:44:48;22.30;;;1.80;;
76393;SDS011;65216;51.090;-115.352;2023-11-21T03:47:15;15.10;;;1.80;;
76393;SDS011;65216;51.090;-115.352;2023-11-21T03:49:42;19.40;;;2.00;;
76393;SDS011;65216;51.090;-115.352;2023-11-21T03:52:08;19.20;;;2.20;;
76393;SDS011;65216;51.090;-115.352;2023-11-21T03:54:35;15.20;;;1.70;;
76393;SDS011;65216;51.090;-115.352;2023-11-21T03:57:02;28.20;;;1.80;;
76393;SDS011;65216;51.090;-115.352;2023-11-21T03:59:29;16.40;;;1.80;;
76393;SDS011;65216;51.090;-115.352;2023-11-21T04:01:56;15.30;;;2.10;;
76393;SDS011;65216;51.090;-115.352;2023-11-21T04:04:23;15.70;;;1.60;;
76393;SDS011;65216;51.090;-115.352;2023-11-21T04:06:50;17.60;;;1.50;;
76393;SDS011;65216;51.090;-115.352;2023-11-21T04:09:20;10.20;;;1.20;;
76393;SDS011;65216;51.090;-115.352;2023-11-21T04:11:47;15.00;;;1.50;;
76393;SDS011;65216;51.090;-115.352;2023-11-21T04:14:14;12.90;;;1.60;;
76393;SDS011;65216;51.090;-115.352;2023-11-21T04:16:41;9.60;;;1.60;;
76393;SDS011;65216;51.090;-115.352;2023-11-21T04:19:08;13.80;;;1.30;;
76393;SDS011;65216;51.090;-115.352;2023-11-21T04:24:08;15.00;;;1.30;;
76393;SDS011;65216;51.090;-115.352;2023-11-21T04:26:35;17.40;;;1.50;;
76393;SDS011;65216;51.090;-115.352;2023-11-21T04:29:02;11.40;;;2.20;;
76393;SDS011;65216;51.090;-115.352;2023-11-21T04:31:30;13.10;;;1.40;;
76393;SDS011;65216;51.090;-115.352;2023-11-21T04:33:58;9.20;;;1.20;;
76393;SDS011;65216;51.090;-115.352;2023-11-21T04:36:27;9.60;;;1.50;;
76393;SDS011;65216;51.090;-115.352;2023-11-21T04:38:53;9.90;;;1.20;;
76393;SDS011;65216;51.090;-115.352;2023-11-21T04:41:20;13.40;;;1.20;;
76393;SDS011;65216;51.090;-115.352;2023-11-21T04:43:47;9.20;;;1.20;;
76393;SDS011;65216;51.090;-115.352;2023-11-21T04:46:15;14.20;;;1.40;;
76393;SDS011;65216;51.090;-115.352;2023-11-21T04:48:41;11.00;;;1.00;;
76393;SDS011;65216;51.090;-115.352;2023-11-21T04:51:08;15.50;;;1.50;;
76393;SDS011;65216;51.090;-115.352;2023-11-21T04:53:38;12.60;;;1.20;;
76393;SDS011;65216;51.090;-115.352;2023-11-21T04:56:05;15.20;;;1.40;;
76393;SDS011;65216;51.090;-115.352;2023-11-21T04:58:32;12.80;;;1.30;;
76393;SDS011;65216;51.090;-115.352;2023-11-21T05:00:59;8.30;;;1.10;;
76393;SDS011;65216;51.090;-115.352;2023-11-21T05:03:26;9.00;;;1.10;;
76393;SDS011;65216;51.090;-115.352;2023-11-21T05:05:55;9.00;;;1.00;;
76393;SDS011;65216;51.090;-115.352;2023-11-21T05:08:24;8.20;;;1.00;;
76393;SDS011;65216;51.090;-115.352;2023-11-21T05:10:52;8.70;;;1.20;;
76393;SDS011;65216;51.090;-115.352;2023-11-21T05:13:20;8.60;;;0.90;;
76393;SDS011;65216;51.090;-115.352;2023-11-21T05:15:55;4.40;;;0.90;;
76393;SDS011;65216;51.090;-115.352;2023-11-21T05:18:26;5.20;;;0.80;;
76393;SDS011;65216;51.090;-115.352;2023-11-21T05:20:53;4.50;;;0.80;;
76393;SDS011;65216;51.090;-115.352;2023-11-21T05:23:19;3.00;;;0.80;;
76393;SDS011;65216;51.090;-115.352;2023-11-21T05:25:47;6.40;;;0.70;;
76393;SDS011;65216;51.090;-115.352;2023-11-21T05:28:15;4.40;;;0.70;;
76393;SDS011;65216;51.090;-115.352;2023-11-21T05:30:41;3.90;;;0.40;;
76393;SDS011;65216;51.090;-115.352;2023-11-21T05:33:08;4.40;;;0.50;;
76393;SDS011;65216;51.090;-115.352;2023-11-21T05:35:35;3.90;;;0.50;;
76393;SDS011;65216;51.090;-115.352;2023-11-21T05:38:02;3.70;;;0.50;;
76393;SDS011;65216;51.090;-115.352;2023-11-21T05:40:31;1.10;;;0.40;;
76393;SDS011;65216;51.090;-115.352;2023-11-21T05:42:57;2.20;;;0.50;;
76393;SDS011;65216;51.090;-115.352;2023-11-21T05:45:24;4.00;;;0.40;;
76393;SDS011;65216;51.090;-115.352;2023-11-21T05:47:51;3.30;;;0.30;;
76393;SDS011;65216;51.090;-115.352;2023-11-21T05:50:18;1.70;;;0.40;;
76393;SDS011;65216;51.090;-115.352;2023-11-21T05:52:48;1.00;;;0.30;;
76393;SDS011;65216;51.090;-115.352;2023-11-21T05:55:18;0.90;;;0.10;;
76393;SDS011;65216;51.090;-115.352;2023-11-21T05:57:49;1.20;;;0.20;;
76393;SDS011;65216;51.090;-115.352;2023-11-21T06:00:16;1.50;;;0.40;;
76393;SDS011;65216;51.090;-115.352;2023-11-21T06:02:49;0.40;;;0.10;;
76393;SDS011;65216;51.090;-115.352;2023-11-21T06:05:20;0.80;;;0.20;;
76393;SDS011;65216;51.090;-115.352;2023-11-21T06:07:54;0.30;;;0.10;;
76393;SDS011;65216;51.090;-115.352;2023-11-21T06:10:25;1.10;;;0.30;;
76393;SDS011;65216;51.090;-115.352;2023-11-21T06:12:52;0.70;;;0.20;;
76393;SDS011;65216;51.090;-115.352;2023-11-21T06:15:19;0.60;;;0.20;;
76393;SDS011;65216;51.090;-115.352;2023-11-21T06:17:48;1.40;;;0.20;;
76393;SDS011;65216;51.090;-115.352;2023-11-21T06:20:19;0.90;;;0.40;;
76393;SDS011;65216;51.090;-115.352;2023-11-21T06:22:49;0.70;;;0.20;;
76393;SDS011;65216;51.090;-115.352;2023-11-21T06:25:22;0.40;;;0.10;;
76393;SDS011;65216;51.090;-115.352;2023-11-21T06:27:50;0.40;;;0.20;;
76393;SDS011;65216;51.090;-115.352;2023-11-21T06:30:20;0.70;;;0.20;;
76393;SDS011;65216;51.090;-115.352;2023-11-21T06:32:47;1.10;;;0.20;;
76393;SDS011;65216;51.090;-115.352;2023-11-21T06:35:14;2.60;;;0.10;;
76393;SDS011;65216;51.090;-115.352;2023-11-21T06:37:41;0.40;;;0.10;;
76393;SDS011;65216;51.090;-115.352;2023-11-21T06:40:14;0.00;;;0.00;;
76393;SDS011;65216;51.090;-115.352;2023-11-21T06:42:41;0.50;;;0.10;;
76393;SDS011;65216;51.090;-115.352;2023-11-21T06:45:12;0.10;;;0.10;;
76393;SDS011;65216;51.090;-115.352;2023-11-21T06:47:40;0.00;;;0.00;;
76393;SDS011;65216;51.090;-115.352;2023-11-21T06:50:08;2.20;;;0.20;;
76393;SDS011;65216;51.090;-115.352;2023-11-21T06:52:35;0.10;;;0.10;;
76393;SDS011;65216;51.090;-115.352;2023-11-21T06:55:01;0.60;;;0.20;;
76393;SDS011;65216;51.090;-115.352;2023-11-21T06:57:29;1.20;;;0.10;;
76393;SDS011;65216;51.090;-115.352;2023-11-21T06:59:56;0.40;;;0.30;;
76393;SDS011;65216;51.090;-115.352;2023-11-21T07:02:26;0.60;;;0.30;;
76393;SDS011;65216;51.090;-115.352;2023-11-21T07:04:53;0.50;;;0.10;;
76393;SDS011;65216;51.090;-115.352;2023-11-21T07:07:20;0.30;;;0.10;;
76393;SDS011;65216;51.090;-115.352;2023-11-21T07:09:47;0.10;;;0.10;;
76393;SDS011;65216;51.090;-115.352;2023-11-21T07:12:15;0.30;;;0.30;;
76393;SDS011;65216;51.090;-115.352;2023-11-21T07:14:41;0.30;;;0.20;;
76393;SDS011;65216;51.090;-115.352;2023-11-21T07:17:11;0.30;;;0.10;;
76393;SDS011;65216;51.090;-115.352;2023-11-21T07:19:38;0.10;;;0.10;;
76393;SDS011;65216;51.090;-115.352;2023-11-21T07:22:10;0.30;;;0.20;;
76393;SDS011;65216;51.090;-115.352;2023-11-21T07:24:37;0.40;;;0.20;;
76393;SDS011;65216;51.090;-115.352;2023-11-21T07:27:04;0.30;;;0.10;;
76393;SDS011;65216;51.090;-115.352;2023-11-21T07:29:30;0.00;;;0.00;;
76393;SDS011;65216;51.090;-115.352;2023-11-21T07:31:58;0.00;;;0.00;;
76393;SDS011;65216;51.090;-115.352;2023-11-21T07:34:26;0.10;;;0.10;;
76393;SDS011;65216;51.090;-115.352;2023-11-21T07:36:53;0.60;;;0.20;;
76393;SDS011;65216;51.090;-115.352;2023-11-21T07:39:20;0.10;;;0.10;;
76393;SDS011;65216;51.090;-115.352;2023-11-21T07:41:46;1.10;;;0.20;;
76393;SDS011;65216;51.090;-115.352;2023-11-21T07:44:17;0.60;;;0.20;;
76393;SDS011;65216;51.090;-115.352;2023-11-21T07:46:44;0.10;;;0.10;;
76393;SDS011;65216;51.090;-115.352;2023-11-21T07:49:11;0.10;;;0.10;;
76393;SDS011;65216;51.090;-115.352;2023-11-21T07:51:44;0.40;;;0.10;;
76393;SDS011;65216;51.090;-115.352;2023-11-21T07:54:11;1.30;;;0.20;;
76393;SDS011;65216;51.090;-115.352;2023-11-21T07:56:38;0.20;;;0.20;;
76393;SDS011;65216;51.090;-115.352;2023-11-21T07:59:05;0.40;;;0.10;;
76393;SDS011;65216;51.090;-115.352;2023-11-21T08:01:31;0.30;;;0.20;;
76393;SDS011;65216;51.090;-115.352;2023-11-21T08:04:00;0.60;;;0.10;;
76393;SDS011;65216;51.090;-115.352;2023-11-21T08:06:30;0.50;;;0.00;;
76393;SDS011;65216;51.090;-115.352;2023-11-21T08:08:57;0.20;;;0.10;;
76393;SDS011;65216;51.090;-115.352;2023-11-21T08:11:25;0.10;;;0.10;;
76393;SDS011;65216;51.090;-115.352;2023-11-21T08:13:55;0.70;;;0.10;;
76393;SDS011;65216;51.090;-115.352;2023-11-21T08:16:25;1.10;;;0.20;;
76393;SDS011;65216;51.090;-115.352;2023-11-21T08:18:53;0.10;;;0.00;;
76393;SDS011;65216;51.090;-115.352;2023-11-21T08:21:22;0.00;;;0.00;;
76393;SDS011;65216;51.090;-115.352;2023-11-21T08:23:50;0.40;;;0.20;;
76393;SDS011;65216;51.090;-115.352;2023-11-21T08:26:21;0.40;;;0.10;;
76393;SDS011;65216;51.090;-115.352;2023-11-21T08:28:49;0.20;;;0.10;;
76393;SDS011;65216;51.090;-115.352;2023-11-21T08:31:24;0.40;;;0.20;;
76393;SDS011;65216;51.090;-115.352;2023-11-21T08:33:55;0.20;;;0.10;;
76393;SDS011;65216;51.090;-115.352;2023-11-21T08:36:22;0.00;;;0.00;;
76393;SDS011;65216;51.090;-115.352;2023-11-21T08:38:50;0.20;;;0.10;;
76393;SDS011;65216;51.090;-115.352;2023-11-21T08:41:20;0.80;;;0.10;;
76393;SDS011;65216;51.090;-115.352;2023-11-21T08:43:51;0.60;;;0.10;;
76393;SDS011;65216;51.090;-115.352;2023-11-21T08:46:18;2.40;;;0.20;;
76393;SDS011;65216;51.090;-115.352;2023-11-21T08:48:45;1.30;;;0.10;;
76393;SDS011;65216;51.090;-115.352;2023-11-21T08:51:12;0.50;;;0.10;;
76393;SDS011;65216;51.090;-115.352;2023-11-21T08:53:43;0.10;;;0.10;;
76393;SDS011;65216;51.090;-115.352;2023-11-21T08:56:13;0.10;;;0.10;;
76393;SDS011;65216;51.090;-115.352;2023-11-21T08:58:40;0.10;;;0.10;;
76393;SDS011;65216;51.090;-115.352;2023-11-21T09:01:07;0.10;;;0.10;;
76393;SDS011;65216;51.090;-115.352;2023-11-21T09:03:34;0.10;;;0.10;;
76393;SDS011;65216;51.090;-115.352;2023-11-21T09:06:01;0.20;;;0.00;;
76393;SDS011;65216;51.090;-115.352;2023-11-21T09:08:29;0.20;;;0.10;;
76393;SDS011;65216;51.090;-115.352;2023-11-21T09:10:58;0.20;;;0.10;;
76393;SDS011;65216;51.090;-115.352;2023-11-21T09:13:25;0.20;;;0.10;;
76393;SDS011;65216;51.090;-115.352;2023-11-21T09:15:52;0.30;;;0.10;;
76393;SDS011;65216;51.090;-115.352;2023-11-21T09:18:18;0.90;;;0.10;;
76393;SDS011;65216;51.090;-115.352;2023-11-21T09:20:45;0.10;;;0.10;;
76393;SDS011;65216;51.090;-115.352;2023-11-21T09:23:12;0.30;;;0.00;;
76393;SDS011;65216;51.090;-115.352;2023-11-21T09:25:39;0.20;;;0.00;;
76393;SDS011;65216;51.090;-115.352;2023-11-21T09:28:06;0.30;;;0.00;;
76393;SDS011;65216;51.090;-115.352;2023-11-21T09:30:35;0.10;;;0.00;;
76393;SDS011;65216;51.090;-115.352;2023-11-21T09:33:03;0.50;;;0.10;;
76393;SDS011;65216;51.090;-115.352;2023-11-21T09:35:38;0.40;;;0.10;;
76393;SDS011;65216;51.090;-115.352;2023-11-21T09:38:05;0.30;;;0.30;;
76393;SDS011;65216;51.090;-115.352;2023-11-21T09:40:37;0.50;;;0.30;;
76393;SDS011;65216;51.090;-115.352;2023-11-21T09:43:07;0.10;;;0.10;;
76393;SDS011;65216;51.090;-115.352;2023-11-21T09:45:44;0.50;;;0.20;;
76393;SDS011;65216;51.090;-115.352;2023-11-21T09:48:15;0.00;;;0.00;;
76393;SDS011;65216;51.090;-115.352;2023-11-21T09:50:47;0.30;;;0.20;;
76393;SDS011;65216;51.090;-115.352;2023-11-21T09:53:18;0.70;;;0.10;;
76393;SDS011;65216;51.090;-115.352;2023-11-21T09:55:49;0.60;;;0.10;;
76393;SDS011;65216;51.090;-115.352;2023-11-21T09:58:18;1.00;;;0.20;;
76393;SDS011;65216;51.090;-115.352;2023-11-21T10:00:48;0.00;;;0.00;;
76393;SDS011;65216;51.090;-115.352;2023-11-21T10:03:18;0.30;;;0.10;;
76393;SDS011;65216;51.090;-115.352;2023-11-21T10:05:48;0.00;;;0.00;;
76393;SDS011;65216;51.090;-115.352;2023-11-21T10:08:17;0.10;;;0.00;;
76393;SDS011;65216;51.090;-115.352;2023-11-21T10:10:49;0.10;;;0.10;;
76393;SDS011;65216;51.090;-115.352;2023-11-21T10:13:19;1.20;;;0.20;;
76393;SDS011;65216;51.090;-115.352;2023-11-21T10:15:50;0.20;;;0.10;;
76393;SDS011;65216;51.090;-115.352;2023-11-21T10:18:22;0.20;;;0.10;;
76393;SDS011;65216;51.090;-115.352;2023-11-21T10:20:51;0.10;;;0.10;;
76393;SDS011;65216;51.090;-115.352;2023-11-21T10:23:22;0.20;;;0.10;;
76393;SDS011;65216;51.090;-115.352;2023-11-21T10:25:52;0.50;;;0.20;;
76393;SDS011;65216;51.090;-115.352;2023-11-21T10:28:21;0.40;;;0.10;;
76393;SDS011;65216;51.090;-115.352;2023-11-21T10:30:48;0.10;;;0.10;;
76393;SDS011;65216;51.090;-115.352;2023-11-21T10:33:15;0.50;;;0.30;;
76393;SDS011;65216;51.090;-115.352;2023-11-21T10:38:21;0.50;;;0.10;;
76393;SDS011;65216;51.090;-115.352;2023-11-21T10:40:50;0.10;;;0.00;;
76393;SDS011;65216;51.090;-115.352;2023-11-21T10:43:18;1.40;;;0.40;;
76393;SDS011;65216;51.090;-115.352;2023-11-21T10:45:45;0.70;;;0.10;;
76393;SDS011;65216;51.090;-115.352;2023-11-21T10:48:17;0.80;;;0.20;;
76393;SDS011;65216;51.090;-115.352;2023-11-21T10:50:49;0.90;;;0.10;;
76393;SDS011;65216;51.090;-115.352;2023-11-21T10:53:17;0.60;;;0.20;;
76393;SDS011;65216;51.090;-115.352;2023-11-21T10:55:46;0.30;;;0.20;;
76393;SDS011;65216;51.090;-115.352;2023-11-21T10:58:14;2.50;;;0.20;;
76393;SDS011;65216;51.090;-115.352;2023-11-21T11:00:41;0.40;;;0.10;;
76393;SDS011;65216;51.090;-115.352;2023-11-21T11:03:11;0.50;;;0.10;;
76393;SDS011;65216;51.090;-115.352;2023-11-21T11:05:43;0.80;;;0.30;;
76393;SDS011;65216;51.090;-115.352;2023-11-21T11:08:21;0.60;;;0.30;;
76393;SDS011;65216;51.090;-115.352;2023-11-21T11:10:52;1.40;;;0.40;;
76393;SDS011;65216;51.090;-115.352;2023-11-21T11:13:24;0.80;;;0.30;;
76393;SDS011;65216;51.090;-115.352;2023-11-21T11:15:58;2.90;;;0.40;;
76393;SDS011;65216;51.090;-115.352;2023-11-21T11:18:30;0.90;;;0.30;;
76393;SDS011;65216;51.090;-115.352;2023-11-21T11:21:11;1.60;;;0.30;;
76393;SDS011;65216;51.090;-115.352;2023-11-21T11:38:01;3.10;;;0.50;;
76393;SDS011;65216;51.090;-115.352;2023-11-21T11:40:44;2.10;;;0.30;;
76393;SDS011;65216;51.090;-115.352;2023-11-21T11:43:13;2.90;;;0.50;;
76393;SDS011;65216;51.090;-115.352;2023-11-21T11:45:39;2.40;;;0.50;;
76393;SDS011;65216;51.090;-115.352;2023-11-21T11:48:08;1.00;;;0.30;;
76393;SDS011;65216;51.090;-115.352;2023-11-21T11:53:39;3.30;;;0.60;;
76393;SDS011;65216;51.090;-115.352;2023-11-21T11:56:29;1.90;;;0.50;;
76393;SDS011;65216;51.090;-115.352;2023-11-21T11:59:03;1.00;;;0.40;;
76393;SDS011;65216;51.090;-115.352;2023-11-21T12:01:33;2.20;;;0.40;;
76393;SDS011;65216;51.090;-115.352;2023-11-21T12:07:05;1.80;;;0.50;;
76393;SDS011;65216;51.090;-115.352;2023-11-21T12:09:33;2.70;;;0.70;;
76393;SDS011;65216;51.090;-115.352;2023-11-21T12:12:00;3.30;;;0.70;;
76393;SDS011;65216;51.090;-115.352;2023-11-21T12:14:28;1.90;;;0.50;;
76393;SDS011;65216;51.090;-115.352;2023-11-21T12:16:56;2.40;;;0.50;;
76393;SDS011;65216;51.090;-115.352;2023-11-21T12:19:23;2.10;;;0.40;;
76393;SDS011;65216;51.090;-115.352;2023-11-21T12:21:52;1.20;;;0.50;;
76393;SDS011;65216;51.090;-115.352;2023-11-21T12:24:21;1.30;;;0.40;;
76393;SDS011;65216;51.090;-115.352;2023-11-21T12:26:49;1.70;;;0.40;;
76393;SDS011;65216;51.090;-115.352;2023-11-21T12:29:16;1.60;;;0.30;;
76393;SDS011;65216;51.090;-115.352;2023-11-21T12:31:44;1.30;;;0.30;;
76393;SDS011;65216;51.090;-115.352;2023-11-21T12:34:11;0.90;;;0.20;;
76393;SDS011;65216;51.090;-115.352;2023-11-21T12:36:39;1.00;;;0.30;;
76393;SDS011;65216;51.090;-115.352;2023-11-21T12:39:06;0.40;;;0.20;;
76393;SDS011;65216;51.090;-115.352;2023-11-21T12:41:35;0.30;;;0.20;;
76393;SDS011;65216;51.090;-115.352;2023-11-21T12:44:01;0.60;;;0.10;;
76393;SDS011;65216;51.090;-115.352;2023-11-21T12:46:41;1.40;;;0.20;;
76393;SDS011;65216;51.090;-115.352;2023-11-21T12:49:11;0.60;;;0.20;;
76393;SDS011;65216;51.090;-115.352;2023-11-21T12:51:45;1.00;;;0.10;;
76393;SDS011;65216;51.090;-115.352;2023-11-21T12:54:13;1.80;;;0.40;;
76393;SDS011;65216;51.090;-115.352;2023-11-21T12:56:45;0.30;;;0.20;;
76393;SDS011;65216;51.090;-115.352;2023-11-21T12:59:15;1.40;;;0.30;;
76393;SDS011;65216;51.090;-115.352;2023-11-21T13:01:43;0.70;;;0.20;;
76393;SDS011;65216;51.090;-115.352;2023-11-21T13:04:12;0.10;;;0.00;;
76393;SDS011;65216;51.090;-115.352;2023-11-21T13:06:38;0.60;;;0.10;;
76393;SDS011;65216;51.090;-115.352;2023-11-21T13:09:08;0.30;;;0.30;;
76393;SDS011;65216;51.090;-115.352;2023-11-21T13:11:38;0.40;;;0.10;;
76393;SDS011;65216;51.090;-115.352;2023-11-21T13:14:07;0.70;;;0.10;;
76393;SDS011;65216;51.090;-115.352;2023-11-21T13:16:37;0.30;;;0.20;;
76393;SDS011;65216;51.090;-115.352;2023-11-21T13:19:08;0.10;;;0.10;;
76393;SDS011;65216;51.090;-115.352;2023-11-21T13:21:34;0.20;;;0.10;;
76393;SDS011;65216;51.090;-115.352;2023-11-21T13:24:01;0.30;;;0.20;;
76393;SDS011;65216;51.090;-115.352;2023-11-21T13:26:29;0.00;;;0.00;;
76393;SDS011;65216;51.090;-115.352;2023-11-21T13:28:56;0.80;;;0.10;;
76393;SDS011;65216;51.090;-115.352;2023-11-21T13:31:25;0.20;;;0.20;;
76393;SDS011;65216;51.090;-115.352;2023-11-21T13:33:58;0.20;;;0.10;;
76393;SDS011;65216;51.090;-115.352;2023-11-21T13:38:59;0.60;;;0.10;;
76393;SDS011;65216;51.090;-115.352;2023-11-21T13:41:33;0.40;;;0.20;;
76393;SDS011;65216;51.090;-115.352;2023-11-21T13:44:00;0.40;;;0.20;;
76393;SDS011;65216;51.090;-115.352;2023-11-21T13:46:42;0.10;;;0.10;;
76393;SDS011;65216;51.090;-115.352;2023-11-21T13:49:09;0.30;;;0.00;;
76393;SDS011;65216;51.090;-115.352;2023-11-21T13:51:37;1.10;;;0.20;;
76393;SDS011;65216;51.090;-115.352;2023-11-21T13:54:10;1.00;;;0.10;;
76393;SDS011;65216;51.090;-115.352;2023-11-21T13:56:38;3.00;;;0.30;;
76393;SDS011;65216;51.090;-115.352;2023-11-21T13:59:09;0.30;;;0.20;;
76393;SDS011;65216;51.090;-115.352;2023-11-21T14:01:56;2.70;;;0.30;;
76393;SDS011;65216;51.090;-115.352;2023-11-21T14:04:24;0.90;;;0.20;;
76393;SDS011;65216;51.090;-115.352;2023-11-21T14:07:01;3.40;;;0.30;;
76393;SDS011;65216;51.090;-115.352;2023-11-21T14:09:46;4.00;;;0.40;;
76393;SDS011;65216;51.090;-115.352;2023-11-21T14:12:17;5.30;;;0.30;;
76393;SDS011;65216;51.090;-115.352;2023-11-21T14:14:44;4.30;;;0.50;;
76393;SDS011;65216;51.090;-115.352;2023-11-21T14:17:14;3.30;;;0.60;;
76393;SDS011;65216;51.090;-115.352;2023-11-21T14:19:42;4.60;;;0.50;;
76393;SDS011;65216;51.090;-115.352;2023-11-21T14:22:11;3.50;;;0.60;;
76393;SDS011;65216;51.090;-115.352;2023-11-21T14:24:38;6.90;;;0.70;;
76393;SDS011;65216;51.090;-115.352;2023-11-21T14:27:13;6.80;;;0.80;;
76393;SDS011;65216;51.090;-115.352;2023-11-21T14:29:43;2.30;;;0.40;;
76393;SDS011;65216;51.090;-115.352;2023-11-21T14:32:11;3.90;;;0.60;;
76393;SDS011;65216;51.090;-115.352;2023-11-21T14:34:39;4.70;;;0.60;;
76393;SDS011;65216;51.090;-115.352;2023-11-21T14:37:06;5.10;;;0.70;;
76393;SDS011;65216;51.090;-115.352;2023-11-21T14:39:33;3.00;;;0.60;;
76393;SDS011;65216;51.090;-115.352;2023-11-21T14:42:06;6.80;;;0.70;;
76393;SDS011;65216;51.090;-115.352;2023-11-21T14:44:33;1.90;;;0.30;;